Time;durP1;ratioP1;P1;durP2;ratioP2;P2;SDS_P1;SDS_P2;PMS_P1;PMS_P2;Temp;Humidity;BMP_temperature;BMP_pressure;BME280_temperature;BME280_humidity;BME280_pressure;Samples;Min_cycle;Max_cycle;Signal;HPM_P1;HPM_P2
2021/12/23 00:01:12;;;;;;;2.13;2.03;;;0.50;99.90;-0.10;101444.00;;;;5115314;28;20632;-71
2021/12/23 00:03:53;;;;;;;3.47;2.87;;;0.50;99.90;0.00;101429.00;;;;5115080;28;20180;-70
2021/12/23 00:06:26;;;;;;;7.03;6.37;;;0.60;99.90;-0.20;101419.00;;;;5115059;28;20219;-71
2021/12/23 00:09:04;;;;;;;1.37;1.23;;;0.50;99.90;0.00;101428.00;;;;5114864;28;20219;-72
2021/12/23 00:11:44;;;;;;;2.80;1.97;;;0.60;99.90;0.00;101441.00;;;;5098643;28;20219;-72
2021/12/23 00:14:23;;;;;;;3.70;2.83;;;0.60;99.90;0.60;101430.00;;;;5098390;28;20172;-72
2021/12/23 00:17:20;;;;;;;1.67;1.60;;;0.70;99.90;0.20;101418.00;;;;5115071;28;20175;-72
2021/12/23 00:23:24;;;;;;;1.73;1.60;;;0.70;99.90;0.20;101427.00;;;;5101059;28;20173;-71
2021/12/23 00:25:52;;;;;;;2.47;2.33;;;0.60;99.90;-0.30;101420.00;;;;5114795;28;20249;-72
2021/12/23 00:28:30;;;;;;;11.53;10.83;;;0.50;99.90;-0.10;101385.00;;;;5114815;28;20180;-72
2021/12/23 00:31:08;;;;;;;6.00;4.07;;;0.50;99.90;-0.10;101385.00;;;;5097420;28;20255;-72
2021/12/23 00:33:48;;;;;;;4.43;4.03;;;0.60;99.90;-0.20;101390.00;;;;5114456;28;20659;-72
2021/12/23 00:36:25;;;;;;;6.07;4.43;;;0.50;99.90;-0.50;101372.00;;;;5116197;28;20176;-73
2021/12/23 00:39:02;;;;;;;2.43;2.10;;;0.50;99.90;0.50;101394.00;;;;5114296;28;20180;-72
2021/12/23 00:41:35;;;;;;;1.03;1.03;;;0.70;99.90;0.40;101417.00;;;;5115650;28;20183;-72
2021/12/23 00:44:12;;;;;;;1.60;1.50;;;0.90;99.90;0.90;101394.00;;;;5114354;28;20184;-72
2021/12/23 00:46:53;;;;;;;1.40;1.40;;;1.00;99.90;0.50;101403.00;;;;5114409;28;20180;-71
2021/12/23 00:49:30;;;;;;;1.63;1.53;;;1.00;99.90;0.40;101395.00;;;;5097272;28;20262;-72
2021/12/23 00:52:10;;;;;;;6.80;2.87;;;0.90;99.90;0.90;101382.00;;;;5097260;28;20648;-70
2021/12/23 00:54:44;;;;;;;14.80;13.47;;;1.00;99.90;0.80;101374.00;;;;5113145;28;20203;-72
2021/12/23 00:57:24;;;;;;;1.60;1.50;;;1.10;99.90;1.00;101389.00;;;;5097438;28;20280;-71
2021/12/23 01:00:02;;;;;;;6.40;3.20;;;1.10;99.90;0.10;101377.00;;;;5113885;28;20218;-72
2021/12/23 01:02:44;;;;;;;1.53;1.47;;;0.90;99.90;0.50;101383.00;;;;5096814;28;20522;-71
2021/12/23 01:05:23;;;;;;;3.23;2.63;;;0.90;99.90;0.40;101374.00;;;;5113915;28;20180;-71
2021/12/23 01:08:03;;;;;;;4.90;2.70;;;0.90;99.90;0.60;101368.00;;;;5097110;28;20176;-71
2021/12/23 01:10:43;;;;;;;3.43;3.13;;;0.90;99.90;1.10;101347.00;;;;5114227;28;20601;-71
2021/12/23 01:13:28;;;;;;;1.00;1.00;;;1.10;99.90;0.80;101380.00;;;;5097244;28;20230;-71
2021/12/23 01:16:14;;;;;;;1.37;1.37;;;1.10;99.90;0.70;101378.00;;;;5113739;28;20180;-70
2021/12/23 01:18:53;;;;;;;1.13;1.13;;;1.10;99.90;0.60;101383.00;;;;5097560;28;20180;-71
2021/12/23 01:21:30;;;;;;;2.00;1.90;;;1.10;99.90;0.60;101372.00;;;;5113788;28;20270;-71
2021/12/23 01:24:04;;;;;;;5.40;4.43;;;1.00;99.90;0.60;101299.00;;;;5096255;28;20183;-70
2021/12/23 01:26:41;;;;;;;5.53;5.07;;;1.00;99.90;0.20;101360.00;;;;5096598;28;20186;-71
2021/12/23 01:29:17;;;;;;;1.27;1.27;;;0.90;99.90;0.30;101342.00;;;;5113409;28;20542;-71
2021/12/23 01:32:03;;;;;;;1.00;0.93;;;0.90;99.90;0.30;101290.00;;;;5114406;28;20302;-71
2021/12/23 01:34:38;;;;;;;2.77;2.10;;;0.90;99.90;0.20;101288.00;;;;5113660;28;20203;-71
2021/12/23 01:37:14;;;;;;;3.57;3.27;;;0.80;99.90;0.20;101336.00;;;;5096128;28;20544;-71
2021/12/23 01:39:46;;;;;;;4.97;3.67;;;0.80;99.90;0.10;101274.00;;;;5096173;28;20175;-71
2021/12/23 01:42:21;;;;;;;1.37;1.27;;;0.80;99.90;0.20;101338.00;;;;5096393;28;20175;-71
2021/12/23 01:44:56;;;;;;;8.03;6.93;;;0.80;99.90;0.10;101317.00;;;;5096087;28;20266;-71
2021/12/23 01:47:32;;;;;;;8.23;6.10;;;0.70;99.90;0.20;101327.00;;;;5096045;28;20186;-70
2021/12/23 01:50:12;;;;;;;6.43;2.80;;;0.80;99.90;0.10;101318.00;;;;5113047;28;20233;-70
2021/12/23 01:52:52;;;;;;;4.80;4.40;;;0.80;99.90;0.10;101293.00;;;;5096113;28;20294;-70
2021/12/23 01:55:29;;;;;;;1.07;1.07;;;0.80;99.90;0.10;101309.00;;;;5112981;28;20532;-70
2021/12/23 01:58:07;;;;;;;1.53;1.43;;;0.70;99.90;0.60;101262.00;;;;5096217;28;20236;-69
2021/12/23 02:00:47;;;;;;;1.83;1.73;;;0.90;99.90;0.20;101323.00;;;;5096235;28;20179;-70
2021/12/23 02:03:23;;;;;;;7.00;4.30;;;0.80;99.90;0.10;101325.00;;;;5096062;28;20183;-70
2021/12/23 02:06:01;;;;;;;1.00;0.80;;;0.80;99.90;0.60;101281.00;;;;5112718;28;20180;-70
2021/12/23 02:08:37;;;;;;;6.77;5.20;;;0.90;99.90;0.20;101320.00;;;;5096091;28;20324;-70
2021/12/23 02:11:12;;;;;;;5.73;5.23;;;0.90;99.90;0.20;101323.00;;;;5112598;28;20210;-70
2021/12/23 02:13:52;;;;;;;1.57;1.53;;;0.90;99.90;0.30;101270.00;;;;5096059;28;20663;-70
2021/12/23 02:16:28;;;;;;;3.60;2.10;;;0.90;99.90;0.40;101274.00;;;;5096021;28;20188;-70
2021/12/23 02:19:23;;;;;;;1.77;1.77;;;0.90;99.90;1.10;101332.00;;;;5112754;28;20164;-70
2021/12/23 02:21:59;;;;;;;0.63;0.63;;;1.10;99.90;1.10;101328.00;;;;5111505;28;20200;-70
2021/12/23 02:24:32;;;;;;;1.33;1.23;;;1.30;99.90;1.20;101310.00;;;;5113841;28;20179;-71
2021/12/23 02:27:10;;;;;;;3.40;2.20;;;1.30;99.90;0.90;101319.00;;;;5112678;28;20209;-69
2021/12/23 02:29:44;;;;;;;0.70;0.70;;;1.30;99.90;1.00;101319.00;;;;5112548;28;20176;-70
2021/12/23 02:32:21;;;;;;;1.93;1.80;;;1.30;99.90;1.00;101316.00;;;;5094803;28;20219;-70
2021/12/23 02:34:58;;;;;;;1.70;1.43;;;1.30;99.90;0.60;101305.00;;;;5112276;28;20255;-70
2021/12/23 02:37:29;;;;;;;3.77;3.50;;;1.20;99.90;0.40;101283.00;;;;5112537;28;20184;-70
2021/12/23 02:40:01;;;;;;;3.63;3.33;;;1.10;99.90;0.30;101298.00;;;;5095754;28;20262;-70
2021/12/23 02:42:33;;;;;;;4.97;3.70;;;1.00;99.90;0.40;101287.00;;;;5095497;28;20180;-70
2021/12/23 02:45:09;;;;;;;1.90;1.80;;;1.00;99.90;0.30;101277.00;;;;5095378;28;20216;-70
2021/12/23 02:47:47;;;;;;;0.30;0.30;;;0.90;99.90;0.80;101275.00;;;;5112683;28;20286;-70
2021/12/23 02:50:23;;;;;;;3.50;0.80;;;1.10;99.90;0.50;101279.00;;;;5095258;28;20191;-70
2021/12/23 02:53:03;;;;;;;1.70;1.50;;;1.00;99.90;0.70;101261.00;;;;5112625;28;20195;-70
2021/12/23 02:55:36;;;;;;;15.43;6.47;;;1.10;99.90;0.60;101271.00;;;;5112383;28;20186;-71
2021/12/23 02:58:13;;;;;;;2.00;1.43;;;1.00;99.90;0.30;101251.00;;;;5112385;28;20233;-70
2021/12/23 03:00:54;;;;;;;4.77;2.40;;;1.00;99.90;0.40;101253.00;;;;5111728;28;20219;-70
2021/12/23 03:03:33;;;;;;;3.37;2.93;;;1.00;99.90;0.40;101230.00;;;;5095245;28;20191;-70
2021/12/23 03:06:08;;;;;;;5.40;0.97;;;0.90;99.90;0.30;101237.00;;;;5113316;28;20186;-69
2021/12/23 03:08:48;;;;;;;7.93;2.93;;;0.90;99.90;0.60;101198.00;;;;5112407;28;20221;-70
2021/12/23 03:11:30;;;;;;;5.97;2.83;;;0.90;99.90;0.50;101242.00;;;;5112143;28;20180;-70
2021/12/23 03:14:04;;;;;;;2.27;2.17;;;0.90;99.90;0.90;101246.00;;;;5095370;28;20549;-69
2021/12/23 03:16:41;;;;;;;5.73;5.07;;;1.10;99.90;0.90;101242.00;;;;5111363;28;20202;-70
2021/12/23 03:19:21;;;;;;;7.50;3.13;;;1.10;99.90;0.60;101231.00;;;;5113949;28;20185;-70
2021/12/23 03:21:57;;;;;;;3.70;2.63;;;1.00;99.90;0.60;101232.00;;;;5116106;28;20180;-70
2021/12/23 03:24:36;;;;;;;1.60;1.53;;;1.00;99.90;0.50;101203.00;;;;5116470;28;20167;-70
2021/12/23 03:27:18;;;;;;;1.87;1.77;;;1.10;99.90;0.40;101213.00;;;;5117294;28;20538;-70
2021/12/23 03:29:56;;;;;;;1.53;1.53;;;1.00;99.90;0.40;101159.00;;;;5115840;28;20628;-70
2021/12/23 03:32:30;;;;;;;2.20;2.00;;;1.00;99.90;0.50;101206.00;;;;5098926;28;20249;-70
2021/12/23 03:35:05;;;;;;;3.40;2.27;;;1.00;99.90;0.50;101172.00;;;;5115741;28;20172;-70
2021/12/23 03:37:41;;;;;;;0.83;0.83;;;1.00;99.90;0.40;101192.00;;;;5098639;28;20186;-70
2021/12/23 03:40:20;;;;;;;0.93;0.93;;;1.00;99.90;0.30;101172.00;;;;5115766;28;20267;-70
2021/12/23 03:42:55;;;;;;;3.30;2.23;;;0.90;99.90;0.30;101172.00;;;;5115645;28;20181;-70
2021/12/23 03:45:29;;;;;;;8.00;5.43;;;0.90;99.90;0.40;101140.00;;;;5115343;28;20172;-70
2021/12/23 03:48:06;;;;;;;12.07;6.20;;;1.00;99.90;0.50;101174.00;;;;5098740;28;20175;-70
2021/12/23 03:50:40;;;;;;;3.23;1.07;;;0.90;99.90;0.20;101159.00;;;;5116906;28;20203;-70
2021/12/23 03:53:22;;;;;;;0.47;0.47;;;0.90;99.90;0.50;101166.00;;;;5115416;28;20203;-70
2021/12/23 03:55:57;;;;;;;4.33;3.10;;;1.00;99.90;0.40;101162.00;;;;5098936;28;20176;-70
2021/12/23 03:58:32;;;;;;;3.40;2.07;;;0.90;99.90;0.30;101145.00;;;;5115399;28;20168;-70
2021/12/23 04:01:08;;;;;;;5.53;4.17;;;0.90;99.90;0.60;101151.00;;;;5097660;28;20195;-70
2021/12/23 04:03:45;;;;;;;1.70;1.60;;;0.90;99.90;0.30;101150.00;;;;5115399;28;20191;-70
2021/12/23 04:06:18;;;;;;;2.30;2.00;;;1.00;99.90;0.60;101107.00;;;;5098089;28;20183;-70
2021/12/23 04:08:56;;;;;;;1.40;1.30;;;1.00;99.90;0.40;101162.00;;;;5098206;28;20267;-70
2021/12/23 04:11:35;;;;;;;1.80;1.80;;;1.00;99.90;0.70;101145.00;;;;5115430;28;20199;-70
2021/12/23 04:14:15;;;;;;;2.50;2.30;;;1.00;99.90;0.60;101133.00;;;;5114822;28;20702;-70
2021/12/23 04:16:49;;;;;;;3.23;2.23;;;1.10;99.90;0.30;101133.00;;;;5114661;28;20187;-70
2021/12/23 04:19:27;;;;;;;0.60;0.60;;;0.90;99.90;0.70;101119.00;;;;5115238;28;20277;-70
2021/12/23 04:22:02;;;;;;;1.17;1.07;;;1.00;99.90;0.90;101126.00;;;;5098562;28;20535;-70
2021/12/23 04:24:39;;;;;;;2.67;1.53;;;1.20;99.90;0.80;101123.00;;;;5114603;28;20186;-70
2021/12/23 04:27:16;;;;;;;3.73;2.07;;;1.20;99.90;0.90;101125.00;;;;5097729;28;20263;-70
2021/12/23 04:29:50;;;;;;;11.07;6.50;;;1.20;99.90;0.60;101120.00;;;;5097953;28;20221;-71
2021/12/23 04:32:26;;;;;;;2.93;2.73;;;1.10;99.90;0.60;101068.00;;;;5114170;28;20217;-71
2021/12/23 04:34:59;;;;;;;5.13;4.80;;;1.10;99.90;0.50;101070.00;;;;5097960;28;20172;-70
2021/12/23 04:37:36;;;;;;;2.23;2.13;;;1.00;99.90;0.80;101074.00;;;;5096836;28;20195;-70
2021/12/23 04:40:15;;;;;;;2.50;2.30;;;1.10;99.90;0.40;101111.00;;;;5098347;28;20188;-70
2021/12/23 04:42:52;;;;;;;5.07;4.20;;;1.00;99.90;0.30;101107.00;;;;5114622;28;20589;-70
2021/12/23 04:45:25;;;;;;;3.20;2.83;;;0.90;99.90;0.40;101050.00;;;;5114034;28;20206;-70
2021/12/23 04:47:59;;;;;;;5.93;3.93;;;1.00;99.90;0.40;101089.00;;;;5114489;28;20168;-70
2021/12/23 04:50:33;;;;;;;1.00;1.00;;;1.00;99.90;0.30;101077.00;;;;5114430;28;20168;-70
2021/12/23 04:53:09;;;;;;;3.80;3.57;;;0.90;99.90;0.60;101071.00;;;;5114377;28;20214;-70
2021/12/23 04:55:45;;;;;;;0.60;0.60;;;1.00;99.90;0.70;101040.00;;;;5114443;28;20199;-70
2021/12/23 04:58:27;;;;;;;2.93;2.83;;;1.00;99.90;0.60;101063.00;;;;5096369;28;20188;-70
2021/12/23 05:01:06;;;;;;;1.97;1.53;;;1.00;99.90;0.60;101087.00;;;;5114318;28;20160;-70
2021/12/23 05:03:42;;;;;;;4.47;3.00;;;1.10;99.90;0.60;101078.00;;;;5114140;28;20171;-70
2021/12/23 05:06:24;;;;;;;5.83;5.33;;;1.10;99.90;0.90;101024.00;;;;5113891;28;20201;-70
2021/12/23 05:08:59;;;;;;;6.07;2.73;;;1.10;99.90;0.60;101083.00;;;;5113970;28;20173;-70
2021/12/23 05:11:30;;;;;;;17.40;16.23;;;1.10;99.90;0.60;101067.00;;;;5113603;28;20215;-70
2021/12/23 05:14:09;;;;;;;7.30;6.60;;;1.20;99.90;0.40;101058.00;;;;5113273;28;20184;-69
2021/12/23 05:16:45;;;;;;;3.10;2.90;;;1.10;99.90;0.60;101050.00;;;;5113840;28;20188;-70
2021/12/23 05:19:16;;;;;;;10.40;4.37;;;1.10;99.90;0.70;101048.00;;;;5114173;28;20160;-70
2021/12/23 05:21:57;;;;;;;10.27;4.53;;;1.20;99.90;0.60;101054.00;;;;5096908;28;20274;-70
2021/12/23 05:24:37;;;;;;;4.57;4.17;;;1.30;99.90;0.70;101053.00;;;;5113689;28;20523;-70
2021/12/23 05:27:11;;;;;;;3.30;2.97;;;1.30;99.90;0.80;101057.00;;;;5113383;28;20186;-69
2021/12/23 05:29:41;;;;;;;2.00;1.90;;;1.30;99.90;1.40;101075.00;;;;5113351;28;20180;-71
2021/12/23 05:32:17;;;;;;;3.30;1.03;;;1.50;99.90;1.50;101077.00;;;;5113345;28;20219;-70
2021/12/23 05:34:50;;;;;;;0.53;0.53;;;1.60;99.90;1.70;101020.00;;;;5113346;28;20168;-71
2021/12/23 05:37:24;;;;;;;0.33;0.33;;;1.80;99.90;1.00;101057.00;;;;5096207;28;20180;-70
2021/12/23 05:39:57;;;;;;;4.27;3.03;;;1.70;99.90;1.10;101064.00;;;;5096384;28;20180;-70
2021/12/23 05:42:31;;;;;;;0.70;0.70;;;1.60;99.90;1.00;101063.00;;;;5095634;28;20191;-70
2021/12/23 05:45:03;;;;;;;0.73;0.73;;;1.50;99.90;0.80;101066.00;;;;5096533;28;20270;-70
2021/12/23 05:47:37;;;;;;;5.93;3.40;;;1.40;99.90;0.70;101052.00;;;;5113131;28;20180;-70
2021/12/23 05:50:20;;;;;;;5.57;3.63;;;1.30;99.90;0.80;101062.00;;;;5114500;28;20182;-70
2021/12/23 05:52:57;;;;;;;2.70;2.50;;;1.40;99.90;0.90;101066.00;;;;5095731;28;20761;-71
2021/12/23 05:55:31;;;;;;;1.97;1.63;;;1.40;99.90;1.10;101065.00;;;;5096529;28;20624;-70
2021/12/23 05:58:10;;;;;;;2.97;2.77;;;1.50;99.90;0.90;101026.00;;;;5095813;28;20520;-71
2021/12/23 06:00:47;;;;;;;7.60;4.80;;;1.50;99.90;1.10;101063.00;;;;5112962;28;20247;-70
2021/12/23 06:03:23;;;;;;;0.73;0.73;;;1.50;99.90;0.80;101052.00;;;;5113110;28;20164;-69
2021/12/23 06:06:00;;;;;;;4.90;4.27;;;1.50;99.90;1.00;100988.00;;;;5113096;28;20266;-70
2021/12/23 06:08:31;;;;;;;8.30;5.33;;;1.50;99.90;0.80;100964.00;;;;5095842;28;20171;-69
2021/12/23 06:11:08;;;;;;;0.90;0.90;;;1.40;99.90;0.80;101019.00;;;;5095857;28;20194;-71
2021/12/23 06:13:39;;;;;;;4.30;2.70;;;1.40;99.90;1.00;101019.00;;;;5095170;28;20201;-71
2021/12/23 06:16:10;;;;;;;3.57;1.83;;;1.50;99.90;1.10;101024.00;;;;5113066;28;20692;-70
2021/12/23 06:18:47;;;;;;;0.57;0.57;;;1.50;99.90;1.50;101022.00;;;;5112390;28;20198;-71
2021/12/23 06:21:22;;;;;;;2.20;1.70;;;1.70;99.90;1.30;101022.00;;;;5112808;28;20192;-71
2021/12/23 06:23:57;;;;;;;3.13;1.50;;;1.70;99.90;1.10;100972.00;;;;5112418;28;20179;-71
2021/12/23 06:26:30;;;;;;;3.73;3.37;;;1.60;99.90;1.10;101012.00;;;;5112630;28;20209;-70
2021/12/23 06:29:02;;;;;;;2.20;1.33;;;1.60;99.90;1.20;101001.00;;;;5112694;28;20221;-71
2021/12/23 06:31:39;;;;;;;0.33;0.33;;;1.60;99.90;1.10;100958.00;;;;5112532;28;20199;-70
2021/12/23 06:34:13;;;;;;;1.47;1.40;;;1.60;99.90;0.90;101009.00;;;;5095734;28;20574;-70
2021/12/23 06:36:55;;;;;;;5.60;4.67;;;1.60;99.90;1.00;100988.00;;;;5095609;28;20184;-70
2021/12/23 06:39:32;;;;;;;2.43;2.23;;;1.50;99.90;1.00;100975.00;;;;5096384;28;20180;-70
2021/12/23 06:42:04;;;;;;;3.90;2.73;;;1.50;99.90;1.40;100961.00;;;;5094980;28;20187;-70
2021/12/23 06:44:39;;;;;;;2.67;2.50;;;1.60;99.90;1.30;100920.00;;;;5112378;28;20241;-70
2021/12/23 06:47:15;;;;;;;10.23;6.43;;;1.70;99.90;1.30;100976.00;;;;5112313;28;20573;-70
2021/12/23 06:49:51;;;;;;;6.57;3.40;;;1.80;99.90;1.20;100956.00;;;;5095540;28;20176;-70
2021/12/23 06:52:30;;;;;;;9.77;1.37;;;1.80;99.90;1.50;100968.00;;;;5095362;28;20204;-71
2021/12/23 06:55:09;;;;;;;2.10;2.00;;;1.80;99.90;1.30;100971.00;;;;5117462;28;20174;-70
2021/12/23 06:57:45;;;;;;;5.07;2.93;;;1.80;99.90;1.20;100964.00;;;;5100267;28;20542;-70
2021/12/23 07:00:20;;;;;;;4.50;2.77;;;1.80;99.90;1.30;100957.00;;;;5116419;28;20179;-70
2021/12/23 07:02:57;;;;;;;14.03;5.93;;;1.80;99.90;1.00;100965.00;;;;5116319;28;20176;-70
2021/12/23 07:05:33;;;;;;;6.00;3.33;;;1.80;99.90;1.20;100957.00;;;;5116294;28;20211;-70
2021/12/23 07:10:44;;;;;;;9.30;1.60;;;1.80;99.90;1.50;100923.00;;;;5116028;28;20179;-70
2021/12/23 07:13:18;;;;;;;2.13;1.80;;;1.90;99.90;1.40;100955.00;;;;5098921;28;20222;-70
2021/12/23 07:15:56;;;;;;;2.67;1.80;;;1.90;99.90;1.50;100904.00;;;;5099067;28;20640;-70
2021/12/23 07:18:29;;;;;;;3.67;3.37;;;1.90;99.90;1.60;100965.00;;;;5099135;28;20176;-70
2021/12/23 07:21:06;;;;;;;5.27;4.97;;;2.00;99.90;1.60;100926.00;;;;5099391;28;20619;-70
2021/12/23 07:23:48;;;;;;;2.53;1.27;;;2.00;99.90;1.30;100972.00;;;;5116007;28;20171;-70
2021/12/23 07:26:24;;;;;;;1.17;1.17;;;2.00;99.90;1.40;100983.00;;;;5099457;28;20176;-70
2021/12/23 07:28:58;;;;;;;0.33;0.33;;;1.90;99.90;1.90;100991.00;;;;5116294;28;20502;-70
2021/12/23 07:31:36;;;;;;;0.33;0.33;;;2.00;99.90;2.10;100986.00;;;;5098667;28;20650;-70
2021/12/23 07:34:14;;;;;;;1.80;1.67;;;2.20;99.90;1.80;100971.00;;;;5115701;28;20632;-70
2021/12/23 07:36:53;;;;;;;3.80;1.70;;;2.20;99.90;1.60;100965.00;;;;5115909;28;20184;-70
2021/12/23 07:39:27;;;;;;;1.57;1.57;;;2.10;99.90;1.60;100954.00;;;;5099019;28;20187;-70
2021/12/23 07:42:06;;;;;;;3.07;1.87;;;2.10;99.90;1.80;100966.00;;;;5098634;28;20240;-70
2021/12/23 07:44:40;;;;;;;3.03;2.77;;;2.10;99.90;1.60;100959.00;;;;5099151;28;20635;-70
2021/12/23 07:47:17;;;;;;;0.40;0.40;;;2.10;99.90;1.70;100920.00;;;;5098860;28;20183;-72
2021/12/23 07:49:47;;;;;;;3.63;3.43;;;2.10;99.90;1.70;100922.00;;;;5116779;28;20188;-70
2021/12/23 07:52:23;;;;;;;2.03;1.93;;;2.20;99.90;2.00;100939.00;;;;5115550;28;20230;-70
2021/12/23 07:54:54;;;;;;;14.00;4.73;;;2.30;99.90;2.00;100971.00;;;;5098270;28;20232;-70
2021/12/23 07:57:26;;;;;;;7.50;2.97;;;2.40;99.90;2.70;100934.00;;;;5099050;28;20199;-71
2021/12/23 08:00:04;;;;;;;0.50;0.50;;;2.60;99.90;2.40;100967.00;;;;5114381;28;20206;-71
2021/12/23 08:02:35;;;;;;;0.30;0.30;;;2.60;99.90;2.50;100986.00;;;;5115236;28;20642;-71
2021/12/23 08:05:07;;;;;;;2.30;1.40;;;2.70;99.90;2.00;100974.00;;;;5097588;28;20179;-71
2021/12/23 08:07:43;;;;;;;0.40;0.40;;;2.60;99.90;1.60;100972.00;;;;5097663;28;20508;-69
2021/12/23 08:10:18;;;;;;;2.37;1.83;;;2.40;99.90;1.90;100955.00;;;;5115250;28;20175;-70
2021/12/23 08:12:54;;;;;;;3.13;2.13;;;2.40;99.90;1.70;100933.00;;;;5116038;28;20206;-69
2021/12/23 08:15:29;;;;;;;0.77;0.77;;;2.30;99.90;1.90;100972.00;;;;5114902;28;20180;-69
2021/12/23 08:18:03;;;;;;;0.73;0.70;;;2.30;99.90;2.10;100978.00;;;;5115725;28;20187;-69
2021/12/23 08:20:40;;;;;;;1.23;1.13;;;2.40;99.90;2.20;100992.00;;;;5114658;28;20195;-70
2021/12/23 08:23:14;;;;;;;1.17;1.17;;;2.40;99.90;2.30;100982.00;;;;5097569;28;20635;-70
2021/12/23 08:25:54;;;;;;;5.67;5.13;;;2.50;99.90;2.40;100962.00;;;;5115884;28;20171;-70
2021/12/23 08:28:33;;;;;;;18.23;7.60;;;2.60;99.90;2.40;100966.00;;;;5115084;28;20175;-69
2021/12/23 08:31:09;;;;;;;0.57;0.57;;;2.70;99.90;2.60;100940.00;;;;5115784;28;20183;-70
2021/12/23 08:33:42;;;;;;;5.73;3.47;;;2.80;99.90;2.40;100962.00;;;;5115567;28;20187;-69
2021/12/23 08:36:22;;;;;;;2.87;1.57;;;2.70;99.90;2.20;100959.00;;;;5114677;28;20172;-70
2021/12/23 08:39:00;;;;;;;3.37;1.20;;;2.70;99.90;2.30;100966.00;;;;5097577;28;20179;-70
2021/12/23 08:41:37;;;;;;;0.60;0.60;;;2.70;99.90;2.10;100966.00;;;;5097702;28;20176;-70
2021/12/23 08:44:13;;;;;;;0.30;0.30;;;2.60;99.90;2.10;100908.00;;;;5114369;28;20201;-69
2021/12/23 08:46:45;;;;;;;0.50;0.50;;;2.60;99.90;2.50;100946.00;;;;5113595;28;20557;-69
2021/12/23 08:49:28;;;;;;;6.00;4.93;;;2.70;99.90;2.20;100940.00;;;;5116023;28;20203;-69
2021/12/23 08:52:08;;;;;;;0.57;0.57;;;2.70;99.90;2.10;100928.00;;;;5097145;28;20203;-70
2021/12/23 08:54:45;;;;;;;4.63;3.73;;;2.60;99.90;2.10;100915.00;;;;5097857;28;20184;-70
2021/12/23 08:57:22;;;;;;;3.33;2.20;;;2.70;99.90;2.20;100903.00;;;;5097666;28;20186;-70
2021/12/23 08:59:59;;;;;;;2.70;2.43;;;2.70;99.90;2.30;100952.00;;;;5114058;28;20172;-70
2021/12/23 09:02:33;;;;;;;2.67;1.00;;;2.70;99.90;2.40;100960.00;;;;5097707;28;20266;-70
2021/12/23 09:05:09;;;;;;;3.57;2.83;;;2.80;99.90;2.40;100937.00;;;;5097483;28;20180;-70
2021/12/23 09:07:43;;;;;;;1.23;1.23;;;2.80;99.90;2.40;100887.00;;;;5097297;28;20190;-71
2021/12/23 09:10:17;;;;;;;10.07;5.83;;;2.80;99.90;2.30;100917.00;;;;5113885;28;20202;-70
2021/12/23 09:12:55;;;;;;;1.63;1.53;;;2.80;99.90;2.40;100881.00;;;;5113699;28;20214;-71
2021/12/23 09:15:29;;;;;;;7.63;2.90;;;2.80;99.90;2.30;100929.00;;;;5096885;28;20187;-71
2021/12/23 09:18:08;;;;;;;7.17;3.93;;;2.80;99.90;2.60;100919.00;;;;5096513;28;20172;-70
2021/12/23 09:20:44;;;;;;;5.33;4.73;;;2.90;99.90;2.50;100912.00;;;;5113456;28;20654;-71
2021/12/23 09:23:22;;;;;;;1.47;1.37;;;3.00;99.90;2.50;100914.00;;;;5113701;28;20159;-70
2021/12/23 09:26:00;;;;;;;14.43;6.03;;;3.00;99.90;2.30;100903.00;;;;5097612;28;20172;-70
2021/12/23 09:29:04;;;;;;;4.13;2.23;;;2.90;99.90;2.40;100899.00;;;;5113596;28;20263;-71
2021/12/23 09:34:34;;;;;;;5.03;4.17;;;3.00;99.90;2.50;100902.00;;;;5113896;28;20222;-70
2021/12/23 09:37:08;;;;;;;2.87;2.27;;;3.00;99.90;2.80;100867.00;;;;5113297;28;20539;-69
2021/12/23 09:39:41;;;;;;;8.17;3.83;;;3.20;99.90;2.30;100919.00;;;;5112682;28;20245;-69
2021/12/23 09:42:20;;;;;;;7.07;3.10;;;3.10;99.90;2.70;100856.00;;;;5096360;28;20218;-68
2021/12/23 09:44:51;;;;;;;1.50;1.40;;;3.20;99.90;2.80;100922.00;;;;5096982;28;20291;-70
2021/12/23 09:47:30;;;;;;;1.77;1.70;;;3.20;99.90;2.80;100911.00;;;;5096329;28;20180;-70
2021/12/23 09:50:06;;;;;;;5.53;1.80;;;3.30;99.90;2.80;100900.00;;;;5112805;28;20528;-69
2021/12/23 09:52:52;;;;;;;1.93;1.47;;;3.30;99.90;2.80;100892.00;;;;5114548;28;20207;-70
2021/12/23 09:55:28;;;;;;;10.77;9.70;;;3.30;99.90;2.70;100885.00;;;;5096292;28;20526;-69
2021/12/23 09:58:08;;;;;;;4.93;3.37;;;3.30;99.90;2.80;100888.00;;;;5113206;28;20179;-69
2021/12/23 10:00:46;;;;;;;1.00;0.97;;;3.30;99.90;3.30;100895.00;;;;5113087;28;20624;-69
2021/12/23 10:03:25;;;;;;;1.17;1.00;;;3.50;99.90;3.50;100895.00;;;;5112903;28;20219;-70
2021/12/23 10:06:07;;;;;;;2.23;2.03;;;3.70;99.90;3.20;100911.00;;;;5112904;28;20221;-70
2021/12/23 10:08:49;;;;;;;0.60;0.60;;;3.70;99.90;3.40;100910.00;;;;5112665;28;20233;-69
2021/12/23 10:33:42;;;;;;;7.87;5.30;;;4.00;99.90;3.90;100909.00;;;;5051158;28;20571;-72
2021/12/23 10:39:26;;;;;;;3.57;3.37;;;4.40;99.90;3.90;100907.00;;;;5041321;28;20197;-70
2021/12/23 10:42:16;;;;;;;0.53;0.53;;;4.30;99.90;4.60;100904.00;;;;5049242;28;20190;-70
2021/12/23 10:44:58;;;;;;;3.40;3.10;;;4.50;99.90;5.10;100890.00;;;;5050369;28;20181;-68
2021/12/23 10:47:48;;;;;;;1.10;1.07;;;4.80;99.90;5.10;100891.00;;;;5050330;28;20727;-68
2021/12/23 10:50:28;;;;;;;0.77;0.77;;;5.10;99.90;5.40;100888.00;;;;5049262;28;20164;-70
2021/12/23 10:53:37;;;;;;;0.30;0.30;;;5.30;99.90;5.50;100850.00;;;;5050105;28;20213;-68
2021/12/23 10:59:23;;;;;;;0.77;0.77;;;5.70;99.90;5.20;100850.00;;;;5049518;28;20230;-69
2021/12/23 11:02:25;;;;;;;3.10;1.23;;;5.40;99.90;4.70;100861.00;;;;5048871;28;20309;-68
2021/12/23 11:05:17;;;;;;;2.47;2.33;;;5.10;99.90;4.90;100849.00;;;;5049345;28;20224;-69
2021/12/23 11:08:27;;;;;;;0.73;0.73;;;5.10;99.90;5.00;100847.00;;;;5049057;28;20171;-69
2021/12/23 11:29:51;;;;;;;2.43;1.87;;;4.70;99.90;4.30;100808.00;;;;5048444;28;20273;-69
2021/12/23 11:37:48;;;;;;;4.23;3.57;;;4.70;99.90;4.20;100730.00;;;;5048668;28;20172;-69
2021/12/23 11:43:32;;;;;;;5.37;4.87;;;4.60;99.90;3.90;100772.00;;;;5043326;28;20193;-68
2021/12/23 11:46:08;;;;;;;0.93;0.93;;;4.50;99.90;4.10;100786.00;;;;5019346;28;20200;-68
2021/12/23 11:48:52;;;;;;;2.83;1.87;;;4.50;99.90;4.40;100778.00;;;;5036062;28;20637;-68
2021/12/23 11:51:32;;;;;;;3.50;2.40;;;4.70;99.90;4.40;100745.00;;;;5034860;28;20265;-68
2021/12/23 11:54:12;;;;;;;10.20;3.57;;;4.70;99.90;4.10;100755.00;;;;5034627;28;20187;-68
2021/12/23 11:57:24;;;;;;;0.90;0.90;;;4.80;99.90;4.90;100765.00;;;;5015127;28;20216;-68
2021/12/23 12:00:37;;;;;;;3.00;2.40;;;5.00;99.90;4.40;100749.00;;;;5047519;28;20158;-68
2021/12/23 12:03:10;;;;;;;1.83;1.50;;;4.90;99.90;4.20;100746.00;;;;5014512;28;20197;-68
2021/12/23 12:05:46;;;;;;;2.90;1.60;;;4.80;99.90;4.70;100701.00;;;;5014691;28;20219;-69
2021/12/23 12:08:26;;;;;;;2.90;2.70;;;4.90;99.90;5.20;100733.00;;;;5014812;28;20182;-69
2021/12/23 12:11:21;;;;;;;3.17;2.87;;;5.10;99.90;4.50;100746.00;;;;5014494;28;20253;-69
2021/12/23 12:13:53;;;;;;;4.23;4.13;;;5.10;99.90;4.40;100689.00;;;;5014618;28;20153;-69
2021/12/23 12:16:37;;;;;;;1.30;1.30;;;4.90;99.90;4.50;100717.00;;;;5014045;28;20519;-69
2021/12/23 12:19:16;;;;;;;6.87;5.03;;;5.00;99.90;4.40;100714.00;;;;5015627;28;20181;-68
2021/12/23 12:21:55;;;;;;;0.50;0.50;;;4.90;99.90;4.40;100721.00;;;;5014705;28;20184;-68
2021/12/23 12:24:52;;;;;;;5.43;4.83;;;4.90;99.90;4.70;100727.00;;;;5014637;28;20172;-69
2021/12/23 12:27:27;;;;;;;5.57;4.23;;;5.10;99.90;4.40;100711.00;;;;5014899;28;20182;-68
2021/12/23 12:30:18;;;;;;;3.90;2.50;;;5.00;99.90;4.70;100717.00;;;;5014063;28;20591;-69
2021/12/23 12:32:54;;;;;;;1.83;1.73;;;5.00;99.90;4.50;100723.00;;;;5013876;28;20215;-69
2021/12/23 12:35:30;;;;;;;1.77;1.67;;;5.10;99.90;4.80;100732.00;;;;5014367;28;20177;-69
2021/12/23 12:38:21;;;;;;;1.73;1.73;;;5.10;99.90;4.70;100701.00;;;;5013929;28;20160;-69
2021/12/23 12:41:09;;;;;;;5.10;2.20;;;5.10;99.90;4.50;100707.00;;;;5014084;28;20171;-69
2021/12/23 12:49:47;;;;;;;2.33;2.13;;;5.50;99.90;4.80;100714.00;;;;5013913;28;20245;-68
2021/12/23 12:52:32;;;;;;;2.43;1.97;;;5.30;99.90;5.10;100718.00;;;;5013901;28;20752;-68
2021/12/23 12:55:02;;;;;;;1.17;1.03;;;5.40;99.90;5.50;100727.00;;;;5014024;28;20234;-68
2021/12/23 12:57:50;;;;;;;3.17;2.87;;;5.60;99.90;5.00;100734.00;;;;5014944;28;20634;-68
2021/12/23 13:00:32;;;;;;;3.33;3.00;;;5.60;99.90;5.60;100734.00;;;;5013580;28;20182;-68